Country
Station

 

Weather  for  Monbaca Benguela  -  Angola    Angola

  
25 °C (77 °F)
    
 
 

Current METAR for Monbaca Benguela is :

FNBG 171400Z 29006KT 9999 FEW015 25/19 Q1011

 

This is a report for Monbaca Benguela - Angola.
 
The report was made 20 hours and 14 minutes ago, at 14:00 UTC .
The wind was blowing at a speed of 3.1 meters per second (6.9 miles per hour) from west/northwest (290°).
 
The temperature was 25 °C (77 °F), with a dew-point at 19 °C (66 °F).
The temperature felt like 26 °C (79 °F).
 
The atmospheric pressure was 1011 hPa (29.85 inHg).
The relative humidity was 69.4%.
 
There were a few clouds at a height of 457 meters (1500 feet).
 
The overall visibility was greater than 10 kilometers (6.2 miles).
 

 
 
 
 

Country :   A   B   C   D   E   F   G   H   I   J   K   L   M   N   O   P   Q   R   S   T   U   V   W   Y   Z

 

Site Info  |  Disclaimer  |  Credits  |  Privacy
Contact us  |  Add to favorites
© 2013-2019 METARs - All rights reserved